createdAt,value
2018-12-07T00:00:56.856Z,1.53
2018-12-07T00:03:27.445Z,1.20
2018-12-07T00:05:56.397Z,1.40
2018-12-07T00:08:25.368Z,1.57
2018-12-07T00:10:54.432Z,1.50
2018-12-07T00:13:23.579Z,1.40
2018-12-07T00:15:52.573Z,1.07
2018-12-07T00:18:21.563Z,1.20
2018-12-07T00:20:50.557Z,1.40
2018-12-07T00:23:19.841Z,1.30
2018-12-07T00:25:48.830Z,1.20
2018-12-07T00:28:18.052Z,1.30
2018-12-07T00:30:47.030Z,1.30
2018-12-07T00:33:16.042Z,1.10
2018-12-07T00:35:45.001Z,1.20
2018-12-07T00:38:13.992Z,1.27
2018-12-07T00:40:43.027Z,1.20
2018-12-07T00:43:12.169Z,1.20
2018-12-07T00:45:41.121Z,1.37
2018-12-07T00:48:10.139Z,1.10
2018-12-07T00:50:39.136Z,1.23
2018-12-07T00:53:08.149Z,1.00
2018-12-07T00:55:39.907Z,1.07
2018-12-07T00:58:08.911Z,1.50
2018-12-07T01:00:37.920Z,0.87
2018-12-07T01:03:06.937Z,1.00
2018-12-07T01:05:36.038Z,1.00
2018-12-07T01:08:05.030Z,1.40
2018-12-07T01:10:34.046Z,1.20
2018-12-07T01:13:03.045Z,1.07
2018-12-07T01:15:32.154Z,0.87
2018-12-07T01:18:01.268Z,1.00
2018-12-07T01:20:30.432Z,0.93
2018-12-07T01:22:59.420Z,1.17
2018-12-07T01:25:28.393Z,0.70
2018-12-07T01:27:57.392Z,0.80
2018-12-07T01:30:26.719Z,0.80
2018-12-07T01:32:55.710Z,1.10
2018-12-07T01:35:24.717Z,0.90
2018-12-07T01:37:53.660Z,0.80
2018-12-07T01:40:22.644Z,0.80
2018-12-07T01:42:51.667Z,0.83
2018-12-07T01:45:20.645Z,0.80
2018-12-07T01:47:49.609Z,0.80
2018-12-07T01:50:18.621Z,0.73
2018-12-07T01:52:47.673Z,0.87
2018-12-07T01:55:16.666Z,0.80
2018-12-07T01:57:45.684Z,0.67
2018-12-07T02:00:14.736Z,0.77
2018-12-07T02:02:43.701Z,0.80
2018-12-07T02:05:12.888Z,0.63
2018-12-07T02:07:41.876Z,0.80
2018-12-07T02:10:11.015Z,0.93
2018-12-07T02:12:40.037Z,0.60
2018-12-07T02:15:09.021Z,0.80
2018-12-07T02:17:37.990Z,0.77
2018-12-07T02:20:07.188Z,0.70
2018-12-07T02:22:36.445Z,0.83
2018-12-07T02:25:06.072Z,0.63
2018-12-07T02:27:40.408Z,0.80
2018-12-07T02:30:09.535Z,0.70
2018-12-07T02:32:38.523Z,0.80
2018-12-07T02:35:07.617Z,0.80
2018-12-07T02:37:36.588Z,0.90
2018-12-07T02:40:06.298Z,0.80
2018-12-07T02:42:35.311Z,0.63
2018-12-07T02:45:05.123Z,0.60
2018-12-07T02:47:34.097Z,1.00
2018-12-07T02:50:03.241Z,0.67
2018-12-07T02:52:32.215Z,0.60
2018-12-07T02:55:01.212Z,0.60
2018-12-07T02:57:30.566Z,0.60
2018-12-07T02:59:59.622Z,0.70
2018-12-07T03:02:28.632Z,0.60
2018-12-07T03:04:57.624Z,0.67
2018-12-07T03:07:26.617Z,0.70
2018-12-07T03:09:55.624Z,0.60
2018-12-07T03:12:24.592Z,0.70
2018-12-07T03:14:53.605Z,0.60
2018-12-07T03:17:22.592Z,0.70
2018-12-07T03:19:51.663Z,0.40
2018-12-07T03:22:20.615Z,0.50
2018-12-07T03:24:49.631Z,0.63
2018-12-07T03:27:18.609Z,0.63
2018-12-07T03:29:47.622Z,0.60
2018-12-07T03:32:16.600Z,0.63
2018-12-07T03:34:45.584Z,0.60
2018-12-07T03:37:14.617Z,0.70
2018-12-07T03:39:43.624Z,0.60
2018-12-07T03:42:12.608Z,0.60
2018-12-07T03:44:41.622Z,0.60
2018-12-07T03:47:10.607Z,0.50
2018-12-07T03:49:39.686Z,0.60
2018-12-07T03:52:08.655Z,0.60
2018-12-07T03:54:37.652Z,0.80
2018-12-07T03:57:06.631Z,0.53
2018-12-07T03:59:35.622Z,0.50
2018-12-07T04:02:05.188Z,0.50
2018-12-07T04:04:34.402Z,0.50
2018-12-07T04:07:03.409Z,0.60
2018-12-07T04:09:32.428Z,0.40
2018-12-07T04:12:01.404Z,0.70
2018-12-07T04:14:30.490Z,0.40
2018-12-07T04:16:59.469Z,0.60
2018-12-07T04:19:28.473Z,0.70
2018-12-07T04:21:57.444Z,0.70
2018-12-07T04:24:26.432Z,0.60
2018-12-07T04:26:55.413Z,0.50
2018-12-07T04:29:24.474Z,0.53
2018-12-07T04:31:53.755Z,0.50
2018-12-07T04:34:23.928Z,0.43
2018-12-07T04:36:52.904Z,0.43
2018-12-07T04:39:21.931Z,0.50
2018-12-07T04:41:50.892Z,0.60
2018-12-07T04:44:19.905Z,0.73
2018-12-07T04:46:48.877Z,0.57
2018-12-07T04:49:17.893Z,0.63
2018-12-07T04:51:47.009Z,0.70
2018-12-07T04:54:16.001Z,0.60
2018-12-07T04:56:44.981Z,0.60
2018-12-07T04:59:13.973Z,0.60
2018-12-07T05:01:43.700Z,0.60
2018-12-07T05:04:12.662Z,0.90
2018-12-07T05:06:41.680Z,0.60
2018-12-07T05:09:10.644Z,0.90
2018-12-07T05:11:39.642Z,0.77
2018-12-07T05:14:08.993Z,0.70
2018-12-07T05:16:38.488Z,0.60
2018-12-07T05:19:07.471Z,0.80
2018-12-07T05:21:36.441Z,1.20
2018-12-07T05:24:05.410Z,1.00
2018-12-07T05:26:34.422Z,0.87
2018-12-07T05:29:03.443Z,0.53
2018-12-07T05:31:32.561Z,0.63
2018-12-07T05:34:01.567Z,1.17
2018-12-07T05:36:30.743Z,0.70
2018-12-07T05:38:59.821Z,0.70
2018-12-07T05:41:28.836Z,0.60
2018-12-07T05:43:58.375Z,0.70
2018-12-07T05:46:27.493Z,0.50
2018-12-07T05:48:56.486Z,0.73
2018-12-07T05:51:25.632Z,0.50
2018-12-07T05:53:54.628Z,0.70
2018-12-07T05:56:23.632Z,0.60
2018-12-07T05:58:52.637Z,0.80
2018-12-07T06:01:21.637Z,0.80
2018-12-07T06:03:50.645Z,0.90
2018-12-07T06:06:19.698Z,0.70
2018-12-07T06:08:48.669Z,0.50
2018-12-07T06:11:24.057Z,0.60
2018-12-07T06:13:53.032Z,0.57
2018-12-07T06:16:22.069Z,0.67
2018-12-07T06:18:51.071Z,0.53
2018-12-07T06:21:20.639Z,0.90
2018-12-07T06:23:49.621Z,0.80
2018-12-07T06:26:18.650Z,0.87
2018-12-07T06:28:47.647Z,0.60
2018-12-07T06:31:16.840Z,0.80
2018-12-07T06:33:45.833Z,0.90
2018-12-07T06:36:14.855Z,3.03
2018-12-07T06:38:43.877Z,1.67
2018-12-07T06:41:12.982Z,1.30
2018-12-07T06:43:42.013Z,1.03
2018-12-07T06:46:11.049Z,1.70
2018-12-07T06:48:40.028Z,1.10
2018-12-07T06:51:09.093Z,0.70
2018-12-07T06:53:38.072Z,0.80
2018-12-07T06:56:07.057Z,0.80
2018-12-07T06:58:36.153Z,0.53
2018-12-07T07:01:05.125Z,0.63
2018-12-07T07:03:34.102Z,0.80
2018-12-07T07:06:03.237Z,0.50
2018-12-07T07:08:32.245Z,1.00
2018-12-07T07:11:01.272Z,0.90
2018-12-07T07:13:30.316Z,0.73
2018-12-07T07:15:59.333Z,0.97
2018-12-07T07:18:28.321Z,1.07
2018-12-07T07:20:57.376Z,1.30
2018-12-07T07:23:26.469Z,1.00
2018-12-07T07:25:55.554Z,1.00
2018-12-07T07:28:24.583Z,0.90
2018-12-07T07:30:53.582Z,1.00
2018-12-07T07:33:22.678Z,1.07
2018-12-07T07:35:51.758Z,0.90
2018-12-07T07:38:20.715Z,0.80
2018-12-07T07:40:49.712Z,0.80
2018-12-07T07:43:18.689Z,0.70
2018-12-07T07:45:47.701Z,0.90
2018-12-07T07:48:16.691Z,0.87
2018-12-07T07:50:45.691Z,0.80
2018-12-07T07:53:14.665Z,1.00
2018-12-07T07:55:43.672Z,0.90
2018-12-07T07:58:12.666Z,1.20
2018-12-07T08:00:41.676Z,0.73
2018-12-07T08:03:10.668Z,1.00
2018-12-07T08:05:39.712Z,0.83
2018-12-07T08:08:08.793Z,0.90
2018-12-07T08:10:37.797Z,0.80
2018-12-07T08:13:06.778Z,0.80
2018-12-07T08:15:35.805Z,1.17
2018-12-07T08:18:05.148Z,1.00
2018-12-07T08:20:34.504Z,0.80
2018-12-07T08:23:03.517Z,0.83
2018-12-07T08:25:32.501Z,1.00
2018-12-07T08:28:01.508Z,1.20
2018-12-07T08:30:30.508Z,0.80
2018-12-07T08:32:59.524Z,3.13
2018-12-07T08:35:28.494Z,0.70
2018-12-07T08:37:57.511Z,1.73
2018-12-07T08:40:27.097Z,1.47
2018-12-07T08:43:02.393Z,1.03
2018-12-07T08:45:31.390Z,1.30
2018-12-07T08:48:00.429Z,1.13
2018-12-07T08:50:29.757Z,1.10
2018-12-07T08:52:58.747Z,1.03
2018-12-07T08:55:27.755Z,2.00
2018-12-07T08:57:56.804Z,0.90
2018-12-07T09:00:25.847Z,1.27
2018-12-07T09:02:54.897Z,0.80
2018-12-07T09:05:23.924Z,0.70
2018-12-07T09:07:52.952Z,1.37
2018-12-07T09:10:22.108Z,2.13
2018-12-07T09:12:51.093Z,1.10
2018-12-07T09:15:20.198Z,1.20
2018-12-07T09:17:49.193Z,1.30
2018-12-07T09:20:18.231Z,1.20
2018-12-07T09:22:47.229Z,1.20
2018-12-07T09:25:16.280Z,1.00
2018-12-07T09:27:45.281Z,1.53
2018-12-07T09:30:14.262Z,1.60
2018-12-07T09:32:43.509Z,1.80
2018-12-07T09:35:12.642Z,2.00
2018-12-07T09:37:41.699Z,1.70
2018-12-07T09:40:10.792Z,1.93
2018-12-07T09:42:39.922Z,2.00
2018-12-07T09:45:08.933Z,1.90
2018-12-07T09:47:38.192Z,1.40
2018-12-07T09:50:08.096Z,0.80
2018-12-07T09:52:37.312Z,0.80
2018-12-07T09:55:06.336Z,1.00
2018-12-07T09:57:35.344Z,0.80
2018-12-07T10:00:05.095Z,0.90
2018-12-07T10:02:34.085Z,0.60
2018-12-07T10:05:03.364Z,0.87
2018-12-07T10:07:32.369Z,1.10
2018-12-07T10:10:01.485Z,1.07
2018-12-07T10:12:30.612Z,1.17
2018-12-07T10:14:59.756Z,1.10
2018-12-07T10:17:30.020Z,0.80
2018-12-07T10:19:59.197Z,0.90
2018-12-07T10:22:28.200Z,0.83
2018-12-07T10:24:57.175Z,0.70
2018-12-07T10:27:26.177Z,1.00
2018-12-07T10:29:55.190Z,0.60
2018-12-07T10:32:24.293Z,1.10
2018-12-07T10:34:53.265Z,0.90
2018-12-07T10:37:22.292Z,0.63
2018-12-07T10:39:51.294Z,0.97
2018-12-07T10:42:20.279Z,0.70
2018-12-07T10:44:49.273Z,0.63
2018-12-07T10:47:18.313Z,0.80
2018-12-07T10:49:47.280Z,0.67
2018-12-07T10:52:16.284Z,0.90
2018-12-07T10:54:45.283Z,0.83
2018-12-07T10:57:14.408Z,0.70
2018-12-07T10:59:43.381Z,0.67
2018-12-07T11:02:17.702Z,1.07
2018-12-07T11:04:51.924Z,0.80
2018-12-07T11:07:26.183Z,0.70
2018-12-07T11:10:00.630Z,0.63
2018-12-07T11:12:35.032Z,0.90
2018-12-07T11:15:09.777Z,0.50
2018-12-07T11:17:43.989Z,0.97
2018-12-07T11:20:18.573Z,0.90
2018-12-07T11:22:52.775Z,0.53
2018-12-07T11:25:27.030Z,0.73
2018-12-07T11:28:01.476Z,0.60
2018-12-07T11:30:35.767Z,0.40
2018-12-07T11:33:45.457Z,0.60
2018-12-07T11:36:14.540Z,0.50
2018-12-07T11:38:43.533Z,0.80
2018-12-07T11:41:12.512Z,0.60
2018-12-07T11:43:41.504Z,0.70
2018-12-07T11:46:10.480Z,0.50
2018-12-07T11:48:39.481Z,0.60
2018-12-07T11:51:08.603Z,0.73
2018-12-07T11:53:37.605Z,0.40
2018-12-07T11:56:06.669Z,0.63
2018-12-07T11:58:35.679Z,0.53
2018-12-07T12:01:04.772Z,0.73
2018-12-07T12:03:33.846Z,0.53
2018-12-07T12:06:02.835Z,0.50
2018-12-07T12:08:31.838Z,0.93
2018-12-07T12:11:00.923Z,1.30
2018-12-07T12:13:30.046Z,0.43
2018-12-07T12:15:59.087Z,0.70
2018-12-07T12:18:28.055Z,0.60
2018-12-07T12:20:57.124Z,0.70
2018-12-07T12:23:26.133Z,0.90
2018-12-07T12:25:55.215Z,0.60
2018-12-07T12:28:24.175Z,0.80
2018-12-07T12:30:53.176Z,0.50
2018-12-07T12:33:22.496Z,0.50
2018-12-07T12:35:51.494Z,0.67
2018-12-07T12:38:20.438Z,0.50
2018-12-07T12:40:49.533Z,0.87
2018-12-07T12:43:18.514Z,0.80
2018-12-07T12:45:48.217Z,0.87
2018-12-07T12:48:17.200Z,0.73
2018-12-07T12:50:46.198Z,0.80
2018-12-07T12:53:15.197Z,1.10
2018-12-07T12:55:44.185Z,1.00
2018-12-07T12:58:13.263Z,0.70
2018-12-07T13:00:42.349Z,0.97
2018-12-07T13:03:11.336Z,0.90
2018-12-07T13:05:40.335Z,1.00
2018-12-07T13:08:09.311Z,1.00
2018-12-07T13:10:38.369Z,0.90
2018-12-07T13:13:07.339Z,0.70
2018-12-07T13:15:36.317Z,1.03
2018-12-07T13:18:05.623Z,1.00
2018-12-07T13:20:34.645Z,1.20
2018-12-07T13:23:03.621Z,0.70
2018-12-07T13:25:32.643Z,0.73
2018-12-07T13:28:01.640Z,0.90
2018-12-07T13:30:30.651Z,0.50
2018-12-07T13:32:59.634Z,0.70
2018-12-07T13:35:28.647Z,0.70
2018-12-07T13:37:57.618Z,0.90
2018-12-07T13:40:26.875Z,0.80
2018-12-07T13:42:56.077Z,0.50
2018-12-07T13:45:25.309Z,0.60
2018-12-07T13:47:54.521Z,0.70
2018-12-07T13:50:28.869Z,0.57
2018-12-07T13:52:57.973Z,0.80
2018-12-07T13:55:27.082Z,0.77
2018-12-07T13:57:56.679Z,0.80
2018-12-07T14:00:25.913Z,0.60
2018-12-07T14:02:55.105Z,1.03
2018-12-07T14:05:31.783Z,0.70
2018-12-07T14:07:58.765Z,0.80
2018-12-07T14:10:27.891Z,0.70
2018-12-07T14:12:57.269Z,1.00
2018-12-07T14:15:26.545Z,0.80
2018-12-07T14:17:55.582Z,0.70
2018-12-07T14:20:24.969Z,0.80
2018-12-07T14:22:53.993Z,0.67
2018-12-07T14:25:23.735Z,0.60
2018-12-07T14:27:53.370Z,0.60
2018-12-07T14:30:22.530Z,0.80
2018-12-07T14:32:51.704Z,0.70
2018-12-07T14:35:20.819Z,0.97
2018-12-07T14:37:50.081Z,0.97
2018-12-07T14:40:19.406Z,1.27
2018-12-07T14:42:48.740Z,1.20
2018-12-07T14:45:17.923Z,1.60
2018-12-07T14:47:47.013Z,0.90
2018-12-07T14:50:16.149Z,1.17
2018-12-07T14:52:45.221Z,0.80
2018-12-07T14:55:14.484Z,1.47
2018-12-07T14:57:43.620Z,1.10
2018-12-07T15:00:13.035Z,0.60
2018-12-07T15:02:42.222Z,0.73
2018-12-07T15:05:11.518Z,1.27
2018-12-07T15:07:40.833Z,0.80
2018-12-07T15:10:10.227Z,0.80
2018-12-07T15:12:39.474Z,0.60
2018-12-07T15:15:09.006Z,1.10
2018-12-07T15:17:38.287Z,2.30
2018-12-07T15:20:09.417Z,1.43
2018-12-07T15:22:38.470Z,0.97
2018-12-07T15:25:07.911Z,1.00
2018-12-07T15:27:37.001Z,1.17
2018-12-07T15:30:07.990Z,1.60
2018-12-07T15:32:37.034Z,2.20
2018-12-07T15:35:07.980Z,2.83
2018-12-07T15:37:37.125Z,2.70
2018-12-07T15:40:08.555Z,5.10
2018-12-07T15:42:37.674Z,1.60
2018-12-07T15:45:07.786Z,1.90
2018-12-07T15:47:37.057Z,1.17
2018-12-07T15:50:08.338Z,1.20
2018-12-07T15:52:37.464Z,1.40
2018-12-07T15:55:07.198Z,1.63
2018-12-07T15:57:36.403Z,1.17
2018-12-07T16:00:06.998Z,0.97
2018-12-07T16:02:36.107Z,1.43
2018-12-07T16:05:06.157Z,1.20
2018-12-07T16:07:35.582Z,1.00
2018-12-07T16:10:05.799Z,1.40
2018-12-07T16:12:35.286Z,1.50
2018-12-07T16:15:04.810Z,1.37
2018-12-07T16:17:34.004Z,1.73
2018-12-07T16:20:03.412Z,1.40
2018-12-07T16:22:32.784Z,1.50
2018-12-07T16:25:02.070Z,1.57
2018-12-07T16:27:31.257Z,1.33
2018-12-07T16:30:00.453Z,1.70
2018-12-07T16:32:29.716Z,1.73
2018-12-07T16:34:58.914Z,1.50
2018-12-07T16:37:28.157Z,1.60
2018-12-07T16:39:57.363Z,1.40
2018-12-07T16:42:26.718Z,1.87
2018-12-07T16:44:56.090Z,1.90
2018-12-07T16:47:25.842Z,2.20
2018-12-07T16:49:55.119Z,1.50
2018-12-07T16:52:24.596Z,1.40
2018-12-07T16:54:54.114Z,1.80
2018-12-07T16:57:23.215Z,1.70
2018-12-07T16:59:52.396Z,1.50
2018-12-07T17:02:21.692Z,1.80
2018-12-07T17:04:50.693Z,2.40
2018-12-07T17:07:19.833Z,2.30
2018-12-07T17:09:48.899Z,2.40
2018-12-07T17:12:17.929Z,2.97
2018-12-07T17:14:47.021Z,2.30
2018-12-07T17:17:16.544Z,3.00
2018-12-07T17:19:45.754Z,2.53
2018-12-07T17:22:15.034Z,2.50
2018-12-07T17:24:44.449Z,2.63
2018-12-07T17:27:13.899Z,5.73
2018-12-07T17:29:43.066Z,3.73
2018-12-07T17:32:12.273Z,3.67
2018-12-07T17:34:41.470Z,3.77
